메인 페이지
METAR-TAF:

METAR-TAF

공항 :

Air_Force_Base

Plattsburgh, 뉴욕, 미국

위도: 44-39N, 경도: 073-28W, 고도: 72m

현재 날씨관측

예보는 17분 전, 15:53시(UTC)에 발표되었습니다.
북서6kt
온도 19°C
습도 56%
기압 1011 hPa
시정: 16.1km
고도 4300ft 상공 구름 보통

METAR: KPBG 301553Z AUTO 32006KT 10SM SCT043 19/10 A2986 RMK AO2 SLP111 T01940100

시각: 12:10 (16:10 UTC)

예보

예보는 4 시간 50분 전, 11:20시(UTC)에 발표되었습니다.
예보 대상 시간: 30일 12시부터 31일 12시까지 (UTC)
서북서10kt
시정: 10km
고도 3000ft 상공 구름 보통
고도 4500ft 상공 구름 많음
일시적
30일 12시부터 30일 14시까지 (UTC)
고도 3000ft 상공 구름 많음
30일 1700시부터 (UTC)
남남동6kt
시정: 10km
고도 7000ft 상공 구름 보통
30일 2300시부터 (UTC)
5kt
시정: 10km
고도 4500ft 상공 구름 많음
시계 내 소나기
31일 0400시부터 (UTC)
북서8kt
시정: 10km
고도 2800ft 상공 구름 보통
고도 3500ft 상공 구름 많음
31일 0900시부터 (UTC)
북서10kt
시정: 10km
고도 4000ft 상공 구름 보통

TAF: KPBG 301120Z 3012/3112 29010KT P6SM SCT030 BKN045 TEMPO 3012/3014 BKN030 FM301700 15006KT P6SM SCT070 FM302300 28005KT P6SM VCSH BKN045 FM310400 31008KT P6SM SCT028 BKN035 FM310900 32010KT P6SM SCT040

4,000개 이상의 공항 관측 자료 및 예보 (METAR 및 TAF 보고).

지도상에서 검색 가능한 기상관측소가 노란 점과 빨간 점으로 표시되어 있습니다.

기상관측소 명을 보려면 표시 위로 마우스를 이동하세요.

날씨 관측과 예보를 보려면 클릭하세요.

지도 변경 : 확대하려면 엑스 표시가 있는 녹색 버튼, 축소하려면 빼기 표시가 있는 녹색 버튼, 다음 페이지의 지도를 보려면 녹색 화살표를 클릭하세요.


METAR-TAF: